sensor_id;sensor_type;location;lat;lon;timestamp;pressure;altitude;pressure_sealevel;temperature;humidity
5780;BME280;2916;49.798;10.022;2023-06-22T00:00:15;149291.41;;;20.39;100.00
5780;BME280;2916;49.798;10.022;2023-06-22T00:02:42;149296.44;;;20.41;100.00
5780;BME280;2916;49.798;10.022;2023-06-22T00:05:09;149288.94;;;20.38;100.00
5780;BME280;2916;49.798;10.022;2023-06-22T00:07:38;149281.44;;;20.35;100.00
5780;BME280;2916;49.798;10.022;2023-06-22T00:10:06;149286.44;;;20.37;99.38
5780;BME280;2916;49.798;10.022;2023-06-22T00:12:34;149288.94;;;20.38;99.64
5780;BME280;2916;49.798;10.022;2023-06-22T00:15:01;149293.94;;;20.40;100.00
5780;BME280;2916;49.798;10.022;2023-06-22T00:17:28;149283.97;;;20.36;100.00
5780;BME280;2916;49.798;10.022;2023-06-22T00:19:55;149290.16;;;20.39;100.00
5780;BME280;2916;49.798;10.022;2023-06-22T00:22:24;149262.69;;;20.27;99.93
5780;BME280;2916;49.798;10.022;2023-06-22T00:24:56;149273.97;;;20.32;100.00
5780;BME280;2916;49.798;10.022;2023-06-22T00:27:23;149270.19;;;20.30;99.87
5780;BME280;2916;49.798;10.022;2023-06-22T00:29:51;149256.47;;;20.25;100.00
5780;BME280;2916;49.798;10.022;2023-06-22T00:32:18;149243.97;;;20.20;100.00
5780;BME280;2916;49.798;10.022;2023-06-22T00:34:45;149241.47;;;20.19;100.00
5780;BME280;2916;49.798;10.022;2023-06-22T00:37:12;149211.50;;;20.06;100.00
5780;BME280;2916;49.798;10.022;2023-06-22T00:39:39;149214.00;;;20.07;100.00
5780;BME280;2916;49.798;10.022;2023-06-22T00:42:08;149200.28;;;20.02;100.00
5780;BME280;2916;49.798;10.022;2023-06-22T00:44:35;149165.28;;;19.88;100.00
5780;BME280;2916;49.798;10.022;2023-06-22T00:47:03;149171.56;;;19.90;100.00
5780;BME280;2916;49.798;10.022;2023-06-22T00:49:32;149151.59;;;19.82;100.00
5780;BME280;2916;49.798;10.022;2023-06-22T00:51:59;149109.13;;;19.65;100.00
5780;BME280;2916;49.798;10.022;2023-06-22T00:54:27;149116.59;;;19.68;100.00
5780;BME280;2916;49.798;10.022;2023-06-22T00:56:55;149091.63;;;19.57;100.00
5780;BME280;2916;49.798;10.022;2023-06-22T00:59:26;149090.34;;;19.57;100.00
5780;BME280;2916;49.798;10.022;2023-06-22T01:01:54;149077.88;;;19.52;100.00
5780;BME280;2916;49.798;10.022;2023-06-22T01:04:25;149079.09;;;19.52;100.00
5780;BME280;2916;49.798;10.022;2023-06-22T01:07:11;149062.91;;;19.46;100.00
5780;BME280;2916;49.798;10.022;2023-06-22T01:09:52;149079.09;;;19.52;100.00
5780;BME280;2916;49.798;10.022;2023-06-22T01:12:24;149086.59;;;19.55;100.00
5780;BME280;2916;49.798;10.022;2023-06-22T01:15:03;149085.38;;;19.55;100.00
5780;BME280;2916;49.798;10.022;2023-06-22T01:17:33;149116.59;;;19.68;100.00
5780;BME280;2916;49.798;10.022;2023-06-22T01:20:02;149101.66;;;19.61;100.00
5780;BME280;2916;49.798;10.022;2023-06-22T01:22:40;149124.13;;;19.71;100.00
5780;BME280;2916;49.798;10.022;2023-06-22T01:25:20;149130.38;;;19.73;100.00
5780;BME280;2916;49.798;10.022;2023-06-22T01:27:59;149120.38;;;19.69;100.00
5780;BME280;2916;49.798;10.022;2023-06-22T01:30:32;149091.63;;;19.57;100.00
5780;BME280;2916;49.798;10.022;2023-06-22T01:33:04;149105.38;;;19.63;100.00
5780;BME280;2916;49.798;10.022;2023-06-22T01:35:32;149106.63;;;19.64;100.00
5780;BME280;2916;49.798;10.022;2023-06-22T01:38:01;149100.38;;;19.61;100.00
5780;BME280;2916;49.798;10.022;2023-06-22T01:40:29;149104.16;;;19.63;100.00
5780;BME280;2916;49.798;10.022;2023-06-22T01:43:00;149096.59;;;19.59;100.00
5780;BME280;2916;49.798;10.022;2023-06-22T01:45:28;149061.63;;;19.45;100.00
5780;BME280;2916;49.798;10.022;2023-06-22T01:47:57;149094.09;;;19.58;100.00
5780;BME280;2916;49.798;10.022;2023-06-22T01:50:25;149092.88;;;19.58;100.00
5780;BME280;2916;49.798;10.022;2023-06-22T01:52:52;149089.09;;;19.56;100.00
5780;BME280;2916;49.798;10.022;2023-06-22T01:55:19;149091.63;;;19.57;100.00
5780;BME280;2916;49.798;10.022;2023-06-22T01:57:46;149109.13;;;19.65;100.00
5780;BME280;2916;49.798;10.022;2023-06-22T02:00:20;149111.66;;;19.66;100.00
5780;BME280;2916;49.798;10.022;2023-06-22T02:02:56;149099.06;;;19.60;100.00
5780;BME280;2916;49.798;10.022;2023-06-22T02:05:33;149114.13;;;19.67;100.00
5780;BME280;2916;49.798;10.022;2023-06-22T02:08:09;149124.13;;;19.71;100.00
5780;BME280;2916;49.798;10.022;2023-06-22T02:10:40;149116.59;;;19.68;100.00
5780;BME280;2916;49.798;10.022;2023-06-22T02:13:10;149065.41;;;19.47;100.00
5780;BME280;2916;49.798;10.022;2023-06-22T02:15:38;149146.56;;;19.80;100.00
5780;BME280;2916;49.798;10.022;2023-06-22T02:18:07;149146.56;;;19.80;100.00
5780;BME280;2916;49.798;10.022;2023-06-22T02:20:37;149144.09;;;19.79;100.00
5780;BME280;2916;49.798;10.022;2023-06-22T02:23:04;149141.59;;;19.78;100.00
5780;BME280;2916;49.798;10.022;2023-06-22T02:25:32;149152.81;;;19.82;100.00
5780;BME280;2916;49.798;10.022;2023-06-22T02:27:59;149142.84;;;19.78;100.00
5780;BME280;2916;49.798;10.022;2023-06-22T02:30:26;149125.34;;;19.71;100.00
5780;BME280;2916;49.798;10.022;2023-06-22T02:32:53;149116.59;;;19.68;100.00
5780;BME280;2916;49.798;10.022;2023-06-22T02:35:26;149130.38;;;19.73;100.00
5780;BME280;2916;49.798;10.022;2023-06-22T02:37:57;149101.66;;;19.61;100.00
5780;BME280;2916;49.798;10.022;2023-06-22T02:40:25;149011.72;;;19.25;100.00
5780;BME280;2916;49.798;10.022;2023-06-22T02:42:52;149044.19;;;19.38;100.00
5780;BME280;2916;49.798;10.022;2023-06-22T02:45:20;149044.19;;;19.38;100.00
5780;BME280;2916;49.798;10.022;2023-06-22T02:47:47;149002.97;;;19.21;100.00
5780;BME280;2916;49.798;10.022;2023-06-22T02:50:15;148956.84;;;19.02;100.00
5780;BME280;2916;49.798;10.022;2023-06-22T02:52:43;148974.25;;;19.09;100.00
5780;BME280;2916;49.798;10.022;2023-06-22T02:55:10;149005.50;;;19.22;100.00
5780;BME280;2916;49.798;10.022;2023-06-22T02:57:37;149002.97;;;19.21;100.00
5780;BME280;2916;49.798;10.022;2023-06-22T03:00:11;149008.00;;;19.23;100.00
5780;BME280;2916;49.798;10.022;2023-06-22T03:02:43;149024.22;;;19.30;100.00
5780;BME280;2916;49.798;10.022;2023-06-22T03:05:11;149024.22;;;19.30;100.00
5780;BME280;2916;49.798;10.022;2023-06-22T03:07:40;149010.47;;;19.24;100.00
5780;BME280;2916;49.798;10.022;2023-06-22T03:10:11;149001.72;;;19.21;100.00
5780;BME280;2916;49.798;10.022;2023-06-22T03:12:39;148989.25;;;19.16;100.00
5780;BME280;2916;49.798;10.022;2023-06-22T03:15:09;148994.22;;;19.18;100.00
5780;BME280;2916;49.798;10.022;2023-06-22T03:17:38;148996.75;;;19.19;100.00
5780;BME280;2916;49.798;10.022;2023-06-22T03:20:07;148998.00;;;19.19;100.00
5780;BME280;2916;49.798;10.022;2023-06-22T03:22:37;148993.00;;;19.17;100.00
5780;BME280;2916;49.798;10.022;2023-06-22T03:25:05;148993.00;;;19.17;100.00
5780;BME280;2916;49.798;10.022;2023-06-22T03:27:40;148978.03;;;19.11;100.00
5780;BME280;2916;49.798;10.022;2023-06-22T03:30:10;148984.25;;;19.13;100.00
5780;BME280;2916;49.798;10.022;2023-06-22T03:32:38;148969.28;;;19.07;100.00
5780;BME280;2916;49.798;10.022;2023-06-22T03:35:06;149002.97;;;19.21;100.00
5780;BME280;2916;49.798;10.022;2023-06-22T03:37:33;149021.69;;;19.29;100.00
5780;BME280;2916;49.798;10.022;2023-06-22T03:40:00;149011.72;;;19.25;100.00
5780;BME280;2916;49.798;10.022;2023-06-22T03:42:31;149021.69;;;19.29;100.00
5780;BME280;2916;49.798;10.022;2023-06-22T03:44:59;149039.19;;;19.36;100.00
5780;BME280;2916;49.798;10.022;2023-06-22T03:47:27;149041.66;;;19.37;100.00
5780;BME280;2916;49.798;10.022;2023-06-22T03:49:54;149029.19;;;19.32;100.00
5780;BME280;2916;49.798;10.022;2023-06-22T03:52:22;149035.44;;;19.34;100.00
5780;BME280;2916;49.798;10.022;2023-06-22T03:54:49;149037.94;;;19.35;100.00
5780;BME280;2916;49.798;10.022;2023-06-22T03:57:16;149065.41;;;19.47;100.00
5780;BME280;2916;49.798;10.022;2023-06-22T03:59:43;149066.66;;;19.47;100.00
5780;BME280;2916;49.798;10.022;2023-06-22T04:02:12;149086.59;;;19.55;100.00
5780;BME280;2916;49.798;10.022;2023-06-22T04:04:39;149091.63;;;19.57;100.00
5780;BME280;2916;49.798;10.022;2023-06-22T04:07:06;149127.84;;;19.72;100.00
5780;BME280;2916;49.798;10.022;2023-06-22T04:09:33;149109.13;;;19.65;100.00
5780;BME280;2916;49.798;10.022;2023-06-22T04:12:01;149074.13;;;19.50;100.00
5780;BME280;2916;49.798;10.022;2023-06-22T04:14:29;149134.09;;;19.75;100.00
5780;BME280;2916;49.798;10.022;2023-06-22T04:16:57;149161.56;;;19.86;100.00
5780;BME280;2916;49.798;10.022;2023-06-22T04:19:25;149191.53;;;19.98;100.00
5780;BME280;2916;49.798;10.022;2023-06-22T04:21:52;149222.75;;;20.11;100.00
5780;BME280;2916;49.798;10.022;2023-06-22T04:24:20;149245.25;;;20.20;100.00
5780;BME280;2916;49.798;10.022;2023-06-22T04:26:47;149276.47;;;20.33;100.00
5780;BME280;2916;49.798;10.022;2023-06-22T04:29:14;149277.69;;;20.33;100.00
5780;BME280;2916;49.798;10.022;2023-06-22T04:31:41;149285.19;;;20.37;100.00
5780;BME280;2916;49.798;10.022;2023-06-22T04:34:09;149310.16;;;20.47;100.00
5780;BME280;2916;49.798;10.022;2023-06-22T04:36:40;149343.94;;;20.61;100.00
5780;BME280;2916;49.798;10.022;2023-06-22T04:39:09;149383.91;;;20.77;100.00
5780;BME280;2916;49.798;10.022;2023-06-22T04:41:37;149408.91;;;20.87;100.00
5780;BME280;2916;49.798;10.022;2023-06-22T04:44:11;149347.69;;;20.62;100.00
5780;BME280;2916;49.798;10.022;2023-06-22T04:46:40;149435.13;;;20.98;100.00
5780;BME280;2916;49.798;10.022;2023-06-22T04:49:08;149462.59;;;21.09;100.00
5780;BME280;2916;49.798;10.022;2023-06-22T04:51:40;149471.38;;;21.13;100.00
5780;BME280;2916;49.798;10.022;2023-06-22T04:54:09;149498.84;;;21.24;100.00
5780;BME280;2916;49.798;10.022;2023-06-22T04:56:36;149526.41;;;21.35;100.00
5780;BME280;2916;49.798;10.022;2023-06-22T04:59:07;149566.38;;;21.51;100.00
5780;BME280;2916;49.798;10.022;2023-06-22T05:01:38;149690.13;;;22.02;100.00
5780;BME280;2916;49.798;10.022;2023-06-22T05:04:06;149732.66;;;22.19;100.00
5780;BME280;2916;49.798;10.022;2023-06-22T05:06:33;149748.94;;;22.26;100.00
5780;BME280;2916;49.798;10.022;2023-06-22T05:09:02;149868.97;;;22.75;98.06
5780;BME280;2916;49.798;10.022;2023-06-22T05:11:31;149876.47;;;22.78;97.07
5780;BME280;2916;49.798;10.022;2023-06-22T05:13:58;149894.00;;;22.85;94.71
5780;BME280;2916;49.798;10.022;2023-06-22T05:16:25;150089.19;;;23.65;92.48
5780;BME280;2916;49.798;10.022;2023-06-22T05:18:54;150124.28;;;23.79;90.12
5780;BME280;2916;49.798;10.022;2023-06-22T05:21:26;149987.88;;;23.23;87.45
5780;BME280;2916;49.798;10.022;2023-06-22T05:23:54;150266.97;;;24.37;86.38
5780;BME280;2916;49.798;10.022;2023-06-22T05:26:24;150432.28;;;25.05;83.70
5780;BME280;2916;49.798;10.022;2023-06-22T05:28:51;150492.44;;;25.29;82.38
5780;BME280;2916;49.798;10.022;2023-06-22T05:31:19;150596.41;;;25.71;81.22
5780;BME280;2916;49.798;10.022;2023-06-22T05:33:48;150680.41;;;26.06;79.38
5780;BME280;2916;49.798;10.022;2023-06-22T05:36:15;150728.00;;;26.25;77.68
5780;BME280;2916;49.798;10.022;2023-06-22T05:38:43;150394.72;;;24.89;78.93
5780;BME280;2916;49.798;10.022;2023-06-22T05:41:10;150364.66;;;24.77;79.35
5780;BME280;2916;49.798;10.022;2023-06-22T05:43:38;150274.50;;;24.40;81.12
5780;BME280;2916;49.798;10.022;2023-06-22T05:46:05;150404.72;;;24.93;81.42
5780;BME280;2916;49.798;10.022;2023-06-22T05:48:33;150393.47;;;24.89;78.55
5780;BME280;2916;49.798;10.022;2023-06-22T05:51:00;150489.94;;;25.28;80.09
5780;BME280;2916;49.798;10.022;2023-06-22T05:53:27;150748.06;;;26.33;77.89
5780;BME280;2916;49.798;10.022;2023-06-22T05:55:54;150729.28;;;26.26;73.91
5780;BME280;2916;49.798;10.022;2023-06-22T05:58:22;150939.91;;;27.11;74.34
5780;BME280;2916;49.798;10.022;2023-06-22T06:00:50;151089.13;;;27.72;71.98
5780;BME280;2916;49.798;10.022;2023-06-22T06:03:17;151143.09;;;27.94;71.80
5780;BME280;2916;49.798;10.022;2023-06-22T06:05:44;151204.56;;;28.19;70.67
5780;BME280;2916;49.798;10.022;2023-06-22T06:08:12;151213.34;;;28.23;67.12
5780;BME280;2916;49.798;10.022;2023-06-22T06:10:39;151041.47;;;27.53;69.78
5780;BME280;2916;49.798;10.022;2023-06-22T06:13:07;151052.75;;;27.57;71.54
5780;BME280;2916;49.798;10.022;2023-06-22T06:15:35;151256.03;;;28.40;68.73
5780;BME280;2916;49.798;10.022;2023-06-22T06:18:04;151277.34;;;28.49;65.90
5780;BME280;2916;49.798;10.022;2023-06-22T06:20:32;151382.75;;;28.92;66.38
5780;BME280;2916;49.798;10.022;2023-06-22T06:22:59;151075.31;;;27.66;68.55
5780;BME280;2916;49.798;10.022;2023-06-22T06:25:27;150815.81;;;26.61;70.93
5780;BME280;2916;49.798;10.022;2023-06-22T06:27:54;151212.09;;;28.22;68.53
5780;BME280;2916;49.798;10.022;2023-06-22T06:30:22;151284.91;;;28.52;66.43
5780;BME280;2916;49.798;10.022;2023-06-22T06:32:50;151129.31;;;27.88;67.47
5780;BME280;2916;49.798;10.022;2023-06-22T06:35:19;151345.09;;;28.76;66.26
5780;BME280;2916;49.798;10.022;2023-06-22T06:37:49;151013.88;;;27.41;69.80
5780;BME280;2916;49.798;10.022;2023-06-22T06:40:18;150902.28;;;26.96;70.70
5780;BME280;2916;49.798;10.022;2023-06-22T06:42:47;151076.63;;;27.67;68.06
5780;BME280;2916;49.798;10.022;2023-06-22T06:45:17;151213.34;;;28.23;66.59
5780;BME280;2916;49.798;10.022;2023-06-22T06:47:45;150903.53;;;26.97;70.55
5780;BME280;2916;49.798;10.022;2023-06-22T06:50:13;151067.81;;;27.63;69.37
5780;BME280;2916;49.798;10.022;2023-06-22T06:52:42;151041.47;;;27.53;68.14
5780;BME280;2916;49.798;10.022;2023-06-22T06:55:10;151020.19;;;27.44;68.12
5780;BME280;2916;49.798;10.022;2023-06-22T06:57:40;151247.25;;;28.36;66.21
5780;BME280;2916;49.798;10.022;2023-06-22T07:00:11;151370.22;;;28.86;63.99
5780;BME280;2916;49.798;10.022;2023-06-22T07:02:40;151171.94;;;28.06;64.20
5780;BME280;2916;49.798;10.022;2023-06-22T07:05:09;151234.66;;;28.31;63.75
5780;BME280;2916;49.798;10.022;2023-06-22T07:07:37;151030.22;;;27.48;66.95
5780;BME280;2916;49.798;10.022;2023-06-22T07:10:07;151134.34;;;27.91;66.63
5780;BME280;2916;49.798;10.022;2023-06-22T07:12:34;151261.06;;;28.42;66.67
5780;BME280;2916;49.798;10.022;2023-06-22T07:15:03;151252.28;;;28.38;64.30
5780;BME280;2916;49.798;10.022;2023-06-22T07:17:31;151129.31;;;27.88;65.60
5780;BME280;2916;49.798;10.022;2023-06-22T07:19:58;151031.44;;;27.49;65.01
5780;BME280;2916;49.798;10.022;2023-06-22T07:22:26;151066.59;;;27.63;66.42
5780;BME280;2916;49.798;10.022;2023-06-22T07:24:53;151079.09;;;27.68;66.62
5780;BME280;2916;49.798;10.022;2023-06-22T07:27:21;151227.13;;;28.28;64.56
5780;BME280;2916;49.798;10.022;2023-06-22T07:29:48;151247.25;;;28.36;63.31
5780;BME280;2916;49.798;10.022;2023-06-22T07:32:16;151174.47;;;28.07;64.68
5780;BME280;2916;49.798;10.022;2023-06-22T07:34:43;151269.88;;;28.46;63.92
5780;BME280;2916;49.798;10.022;2023-06-22T07:37:10;151240.97;;;28.34;63.77
5780;BME280;2916;49.798;10.022;2023-06-22T07:39:37;151242.22;;;28.34;64.16
5780;BME280;2916;49.798;10.022;2023-06-22T07:42:05;151222.16;;;28.26;63.07
5780;BME280;2916;49.798;10.022;2023-06-22T07:44:34;151352.66;;;28.79;63.57
5780;BME280;2916;49.798;10.022;2023-06-22T07:47:01;151282.41;;;28.51;63.45
5780;BME280;2916;49.798;10.022;2023-06-22T07:49:28;151057.78;;;27.59;64.53
5780;BME280;2916;49.798;10.022;2023-06-22T07:51:56;151234.66;;;28.31;64.02
5780;BME280;2916;49.798;10.022;2023-06-22T07:54:23;151327.56;;;28.69;62.90
5780;BME280;2916;49.798;10.022;2023-06-22T07:56:50;151392.78;;;28.96;61.88
5780;BME280;2916;49.798;10.022;2023-06-22T07:59:18;151405.41;;;29.01;61.54
5780;BME280;2916;49.798;10.022;2023-06-22T08:01:46;151264.81;;;28.44;63.83
5780;BME280;2916;49.798;10.022;2023-06-22T08:04:15;151361.44;;;28.83;62.49
5780;BME280;2916;49.798;10.022;2023-06-22T08:06:42;151257.28;;;28.41;63.00
5780;BME280;2916;49.798;10.022;2023-06-22T08:09:09;151500.75;;;29.40;61.35
5780;BME280;2916;49.798;10.022;2023-06-22T08:11:36;151410.41;;;29.03;60.78
5780;BME280;2916;49.798;10.022;2023-06-22T08:14:03;151415.47;;;29.05;60.42
5780;BME280;2916;49.798;10.022;2023-06-22T08:16:31;151395.34;;;28.97;61.34
5780;BME280;2916;49.798;10.022;2023-06-22T08:19:00;151492.03;;;29.36;59.09
5780;BME280;2916;49.798;10.022;2023-06-22T08:21:27;151714.31;;;30.26;58.59
5780;BME280;2916;49.798;10.022;2023-06-22T08:23:54;151651.47;;;30.01;58.00
5780;BME280;2916;49.798;10.022;2023-06-22T08:26:21;151610.03;;;29.84;58.71
5780;BME280;2916;49.798;10.022;2023-06-22T08:28:49;151792.16;;;30.58;56.47
5780;BME280;2916;49.798;10.022;2023-06-22T08:31:16;151646.47;;;29.99;57.13
5780;BME280;2916;49.798;10.022;2023-06-22T08:33:43;151486.97;;;29.34;57.76
5780;BME280;2916;49.798;10.022;2023-06-22T08:36:13;151543.50;;;29.57;58.76
5780;BME280;2916;49.798;10.022;2023-06-22T08:38:40;151448.06;;;29.18;58.50
5780;BME280;2916;49.798;10.022;2023-06-22T08:41:08;151522.13;;;29.48;58.89
5780;BME280;2916;49.798;10.022;2023-06-22T08:43:35;151748.19;;;30.40;56.36
5780;BME280;2916;49.798;10.022;2023-06-22T08:46:02;151773.34;;;30.50;56.54
5780;BME280;2916;49.798;10.022;2023-06-22T08:48:29;151767.03;;;30.48;54.70
5780;BME280;2916;49.798;10.022;2023-06-22T08:50:56;151827.31;;;30.72;54.66
5780;BME280;2916;49.798;10.022;2023-06-22T08:53:25;151816.00;;;30.68;54.06
5780;BME280;2916;49.798;10.022;2023-06-22T08:55:52;151782.13;;;30.54;53.52
5780;BME280;2916;49.798;10.022;2023-06-22T08:58:19;151932.88;;;31.15;53.94
5780;BME280;2916;49.798;10.022;2023-06-22T09:00:48;151769.53;;;30.49;53.63
5780;BME280;2916;49.798;10.022;2023-06-22T09:03:17;151942.91;;;31.19;53.96
5780;BME280;2916;49.798;10.022;2023-06-22T09:05:46;151988.19;;;31.38;52.76
5780;BME280;2916;49.798;10.022;2023-06-22T09:08:13;152102.56;;;31.84;51.43
5780;BME280;2916;49.798;10.022;2023-06-22T09:10:42;151915.28;;;31.08;51.58
5780;BME280;2916;49.798;10.022;2023-06-22T09:13:09;151985.72;;;31.37;51.65
5780;BME280;2916;49.798;10.022;2023-06-22T09:15:36;151970.59;;;31.31;51.33
5780;BME280;2916;49.798;10.022;2023-06-22T09:18:04;152018.34;;;31.50;51.60
5780;BME280;2916;49.798;10.022;2023-06-22T09:20:31;152063.59;;;31.68;52.31
5780;BME280;2916;49.798;10.022;2023-06-22T09:22:58;152149.09;;;32.03;52.12
5780;BME280;2916;49.798;10.022;2023-06-22T09:25:26;152051.00;;;31.63;50.10
5780;BME280;2916;49.798;10.022;2023-06-22T09:27:54;151921.56;;;31.11;51.04
5780;BME280;2916;49.798;10.022;2023-06-22T09:30:22;151930.38;;;31.14;51.10
5780;BME280;2916;49.798;10.022;2023-06-22T09:32:49;151975.66;;;31.33;50.68
5780;BME280;2916;49.798;10.022;2023-06-22T09:35:17;152223.22;;;32.33;50.73
5780;BME280;2916;49.798;10.022;2023-06-22T09:37:44;152234.53;;;32.38;49.83
5780;BME280;2916;49.798;10.022;2023-06-22T09:40:12;152550.28;;;33.66;47.48
5780;BME280;2916;49.798;10.022;2023-06-22T09:42:42;152317.56;;;32.71;48.13
5780;BME280;2916;49.798;10.022;2023-06-22T09:45:11;152350.22;;;32.85;48.47
5780;BME280;2916;49.798;10.022;2023-06-22T09:47:38;152337.69;;;32.80;47.93
5780;BME280;2916;49.798;10.022;2023-06-22T09:50:06;152362.84;;;32.90;47.89
5780;BME280;2916;49.798;10.022;2023-06-22T09:52:34;152278.59;;;32.56;47.80
5780;BME280;2916;49.798;10.022;2023-06-22T09:55:02;152453.41;;;33.27;48.00
5780;BME280;2916;49.798;10.022;2023-06-22T09:57:29;152575.44;;;33.76;45.38
5780;BME280;2916;49.798;10.022;2023-06-22T09:59:57;152383.00;;;32.98;46.70
5780;BME280;2916;49.798;10.022;2023-06-22T10:02:26;152433.28;;;33.18;47.54
5780;BME280;2916;49.798;10.022;2023-06-22T10:04:53;152448.34;;;33.24;47.46
5780;BME280;2916;49.798;10.022;2023-06-22T10:07:20;152234.53;;;32.38;47.24
5780;BME280;2916;49.798;10.022;2023-06-22T10:09:47;152346.47;;;32.83;47.13
5780;BME280;2916;49.798;10.022;2023-06-22T10:12:14;152278.59;;;32.56;47.77
5780;BME280;2916;49.798;10.022;2023-06-22T10:14:41;152418.16;;;33.12;46.10
5780;BME280;2916;49.798;10.022;2023-06-22T10:17:08;152523.84;;;33.55;46.40
5780;BME280;2916;49.798;10.022;2023-06-22T10:19:37;152316.31;;;32.71;46.43
5780;BME280;2916;49.798;10.022;2023-06-22T10:22:05;152435.78;;;33.19;48.10
5780;BME280;2916;49.798;10.022;2023-06-22T10:24:32;152306.25;;;32.67;46.47
5780;BME280;2916;49.798;10.022;2023-06-22T10:26:59;152398.06;;;33.04;45.46
5780;BME280;2916;49.798;10.022;2023-06-22T10:29:27;152352.78;;;32.86;44.47
5780;BME280;2916;49.798;10.022;2023-06-22T10:31:54;152388.00;;;33.00;44.96
5780;BME280;2916;49.798;10.022;2023-06-22T10:34:21;152375.44;;;32.95;45.97
5780;BME280;2916;49.798;10.022;2023-06-22T10:36:49;152266.03;;;32.50;45.76
5780;BME280;2916;49.798;10.022;2023-06-22T10:39:17;152136.50;;;31.98;47.07
5780;BME280;2916;49.798;10.022;2023-06-22T10:41:44;152244.63;;;32.42;46.88
5780;BME280;2916;49.798;10.022;2023-06-22T10:44:11;152465.97;;;33.32;45.86
5780;BME280;2916;49.798;10.022;2023-06-22T10:46:39;152419.44;;;33.13;46.42
5780;BME280;2916;49.798;10.022;2023-06-22T10:49:06;152689.94;;;34.23;46.64
5780;BME280;2916;49.798;10.022;2023-06-22T10:51:33;152559.09;;;33.69;45.99
5780;BME280;2916;49.798;10.022;2023-06-22T10:54:02;152450.91;;;33.26;44.97
5780;BME280;2916;49.798;10.022;2023-06-22T10:56:30;152460.97;;;33.30;44.88
5780;BME280;2916;49.798;10.022;2023-06-22T10:58:59;152497.38;;;33.44;44.47
5780;BME280;2916;49.798;10.022;2023-06-22T11:01:27;152371.69;;;32.93;46.36
5780;BME280;2916;49.798;10.022;2023-06-22T11:03:56;152214.44;;;32.30;46.50
5780;BME280;2916;49.798;10.022;2023-06-22T11:06:24;152372.94;;;32.94;45.96
5780;BME280;2916;49.798;10.022;2023-06-22T11:08:51;152277.34;;;32.55;45.53
5780;BME280;2916;49.798;10.022;2023-06-22T11:11:19;152272.28;;;32.53;45.85
5780;BME280;2916;49.798;10.022;2023-06-22T11:13:46;152146.56;;;32.02;45.65
5780;BME280;2916;49.798;10.022;2023-06-22T11:16:13;152250.94;;;32.44;46.29
5780;BME280;2916;49.798;10.022;2023-06-22T11:18:41;152341.44;;;32.81;45.15
5780;BME280;2916;49.798;10.022;2023-06-22T11:21:09;152367.84;;;32.92;45.25
5780;BME280;2916;49.798;10.022;2023-06-22T11:23:36;152473.50;;;33.35;44.52
5780;BME280;2916;49.798;10.022;2023-06-22T11:26:03;152596.81;;;33.85;44.66
5780;BME280;2916;49.798;10.022;2023-06-22T11:28:31;152550.28;;;33.66;43.09
5780;BME280;2916;49.798;10.022;2023-06-22T11:30:59;152518.84;;;33.53;44.08
5780;BME280;2916;49.798;10.022;2023-06-22T11:33:26;152389.25;;;33.01;44.34
5780;BME280;2916;49.798;10.022;2023-06-22T11:35:53;152555.28;;;33.68;43.97
5780;BME280;2916;49.798;10.022;2023-06-22T11:38:22;152657.25;;;34.09;42.63
5780;BME280;2916;49.798;10.022;2023-06-22T11:40:49;152507.53;;;33.49;43.52
5780;BME280;2916;49.798;10.022;2023-06-22T11:43:16;152462.19;;;33.30;44.51
5780;BME280;2916;49.798;10.022;2023-06-22T11:45:45;152450.91;;;33.26;44.69
5780;BME280;2916;49.798;10.022;2023-06-22T11:48:12;152498.69;;;33.45;43.72
5780;BME280;2916;49.798;10.022;2023-06-22T11:50:39;152525.09;;;33.56;43.83
5780;BME280;2916;49.798;10.022;2023-06-22T11:53:06;152538.97;;;33.61;43.81
5780;BME280;2916;49.798;10.022;2023-06-22T11:55:33;152489.88;;;33.41;44.12
5780;BME280;2916;49.798;10.022;2023-06-22T11:58:01;152432.03;;;33.18;44.58
5780;BME280;2916;49.798;10.022;2023-06-22T12:00:29;152533.91;;;33.59;44.45
5780;BME280;2916;49.798;10.022;2023-06-22T12:02:58;152624.50;;;33.96;43.46
5780;BME280;2916;49.798;10.022;2023-06-22T12:05:25;152589.28;;;33.82;42.73
5780;BME280;2916;49.798;10.022;2023-06-22T12:07:54;152551.53;;;33.66;42.91
5780;BME280;2916;49.798;10.022;2023-06-22T12:10:21;152508.78;;;33.49;43.38
5780;BME280;2916;49.798;10.022;2023-06-22T12:12:49;152621.94;;;33.95;44.06
5780;BME280;2916;49.798;10.022;2023-06-22T12:15:16;152586.75;;;33.81;43.94
5780;BME280;2916;49.798;10.022;2023-06-22T12:17:43;152513.81;;;33.51;44.10
5780;BME280;2916;49.798;10.022;2023-06-22T12:20:12;152694.97;;;34.25;43.38
5780;BME280;2916;49.798;10.022;2023-06-22T12:22:41;152604.38;;;33.88;43.92
5780;BME280;2916;49.798;10.022;2023-06-22T12:25:09;152747.78;;;34.46;42.93
5780;BME280;2916;49.798;10.022;2023-06-22T12:27:37;152842.22;;;34.84;42.20
5780;BME280;2916;49.798;10.022;2023-06-22T12:30:05;152702.53;;;34.28;43.12
5780;BME280;2916;49.798;10.022;2023-06-22T12:32:33;152627.00;;;33.97;43.48
5780;BME280;2916;49.798;10.022;2023-06-22T12:35:00;152546.53;;;33.64;43.78
5780;BME280;2916;49.798;10.022;2023-06-22T12:37:29;152450.91;;;33.26;44.27
5780;BME280;2916;49.798;10.022;2023-06-22T12:39:57;152561.59;;;33.70;43.70
5780;BME280;2916;49.798;10.022;2023-06-22T12:42:24;152600.56;;;33.86;44.11
5780;BME280;2916;49.798;10.022;2023-06-22T12:44:52;152518.84;;;33.53;43.75
5780;BME280;2916;49.798;10.022;2023-06-22T12:47:19;152445.84;;;33.23;44.08
5780;BME280;2916;49.798;10.022;2023-06-22T12:49:46;152403.09;;;33.06;44.63
5780;BME280;2916;49.798;10.022;2023-06-22T12:52:13;152426.97;;;33.16;44.64
5780;BME280;2916;49.798;10.022;2023-06-22T12:54:42;152484.81;;;33.39;44.29
5780;BME280;2916;49.798;10.022;2023-06-22T12:57:09;152536.47;;;33.60;44.15
5780;BME280;2916;49.798;10.022;2023-06-22T12:59:36;152493.63;;;33.43;45.64